Time;durP1;ratioP1;P1;durP2;ratioP2;P2;SDS_P1;SDS_P2;PMS_P1;PMS_P2;Temp;Humidity;BMP_temperature;BMP_pressure;BME280_temperature;BME280_humidity;BME280_pressure;Samples;Min_cycle;Max_cycle;Signal;HPM_P1;HPM_P2
2023/01/09 00:01:26;;;;;;;19.10;9.10;;;;;;;-2.98;53.94;101574.77;109176;1256;72802;-76
2023/01/09 00:03:53;;;;;;;17.00;9.00;;;;;;;-2.93;53.86;101573.75;109090;1257;60862;-73
2023/01/09 00:06:20;;;;;;;15.60;8.00;;;;;;;-2.90;53.70;101565.46;108994;1258;62299;-75
2023/01/09 00:08:47;;;;;;;15.40;8.40;;;;;;;-2.87;53.43;101568.06;108951;1259;73844;-75
2023/01/09 00:13:55;;;;;;;16.00;8.00;;;;;;;-2.78;53.22;101583.16;105077;1292;601123;-77
2023/01/09 00:16:23;;;;;;;16.00;8.50;;;;;;;-2.78;53.07;101587.12;107460;1267;61703;-74
2023/01/09 00:18:52;;;;;;;19.70;9.60;;;;;;;-2.75;53.02;101586.67;107448;1267;61198;-75
2023/01/09 00:21:19;;;;;;;17.40;8.20;;;;;;;-2.72;52.89;101586.77;107397;1267;72205;-75
2023/01/09 00:23:46;;;;;;;15.80;7.40;;;;;;;-2.72;52.78;101584.95;107491;1267;71609;-75
2023/01/09 00:26:16;;;;;;;15.10;8.10;;;;;;;-2.69;52.76;101586.30;107411;1267;73138;-75
2023/01/09 00:28:47;;;;;;;14.50;7.90;;;;;;;-2.67;52.67;101584.73;107317;1269;224705;-75
2023/01/09 00:31:15;;;;;;;15.60;8.00;;;;;;;-2.69;52.19;101582.59;107497;1264;62446;-76
2023/01/09 00:33:58;;;;;;;19.00;8.80;;;;;;;-2.70;52.28;101584.48;107482;1264;74121;-75
2023/01/09 00:36:25;;;;;;;17.70;8.50;;;;;;;-2.67;52.28;101580.73;107464;1264;72939;-75
2023/01/09 00:38:52;;;;;;;15.60;8.30;;;;;;;-2.63;52.33;101579.98;108019;1260;73101;-76
2023/01/09 00:41:29;;;;;;;16.10;8.30;;;;;;;-2.62;52.08;101574.20;108006;1257;60904;-75
2023/01/09 00:43:57;;;;;;;14.50;7.80;;;;;;;-2.57;52.14;101570.04;107876;1257;61246;-75
2023/01/09 00:46:30;;;;;;;15.60;8.40;;;;;;;-2.55;51.94;101565.59;107985;1257;74709;-76
2023/01/09 00:48:57;;;;;;;14.40;7.50;;;;;;;-2.54;51.81;101562.34;108039;1257;74013;-74
2023/01/09 00:51:24;;;;;;;16.10;8.90;;;;;;;-2.51;51.68;101569.95;107975;1257;72911;-74
2023/01/09 00:53:51;;;;;;;13.00;6.80;;;;;;;-2.50;51.36;101562.20;108180;1253;59529;-76
2023/01/09 00:56:18;;;;;;;15.50;7.30;;;;;;;-2.50;51.44;101555.05;108284;1254;61247;-76
2023/01/09 00:58:45;;;;;;;14.60;6.70;;;;;;;-2.49;51.43;101548.85;108331;1252;73691;-76
2023/01/09 01:01:12;;;;;;;14.10;6.90;;;;;;;-2.48;51.43;101540.39;108267;1254;74112;-75
2023/01/09 01:03:40;;;;;;;14.10;7.00;;;;;;;-2.48;51.42;101539.84;108465;1254;73140;-74
2023/01/09 01:08:54;;;;;;;14.10;8.50;;;;;;;-2.51;51.21;101530.55;108346;1253;59554;-76
2023/01/09 01:11:21;;;;;;;15.10;7.60;;;;;;;-2.50;51.23;101522.03;108418;1254;74493;-76
2023/01/09 01:13:48;;;;;;;13.00;6.50;;;;;;;-2.50;51.13;101513.33;108336;1253;72284;-74
2023/01/09 01:16:17;;;;;;;13.80;7.40;;;;;;;-2.50;51.05;101514.35;108136;1254;74477;-76
2023/01/09 01:18:44;;;;;;;16.00;7.90;;;;;;;-2.50;51.10;101512.77;108217;1254;60442;-75
2023/01/09 01:21:12;;;;;;;14.80;7.30;;;;;;;-2.28;50.37;101510.66;108288;1253;61711;-75
2023/01/09 01:23:39;;;;;;;14.80;7.90;;;;;;;-1.95;49.52;101509.85;108117;1254;74275;-75
2023/01/09 01:26:07;;;;;;;13.30;6.80;;;;;;;-1.88;49.35;101506.95;108122;1254;73767;-75
2023/01/09 01:28:34;;;;;;;11.50;6.60;;;;;;;-1.85;49.06;101503.14;108187;1254;73645;-76
2023/01/09 01:31:02;;;;;;;13.70;6.90;;;;;;;-1.85;48.95;101498.23;108176;1254;61117;-76
2023/01/09 01:33:29;;;;;;;12.80;6.90;;;;;;;-2.28;49.56;101494.28;108204;1254;60147;-76
2023/01/09 01:36:16;;;;;;;14.60;6.70;;;;;;;-2.47;50.12;101494.43;108116;1254;74723;-75
2023/01/09 01:38:43;;;;;;;12.50;6.60;;;;;;;-2.48;50.30;101487.55;108155;1254;74921;-76
2023/01/09 01:41:10;;;;;;;13.30;6.30;;;;;;;-2.46;50.42;101480.64;108159;1254;73599;-75
2023/01/09 01:43:51;;;;;;;12.00;6.70;;;;;;;-1.92;49.51;101478.52;108056;1254;61386;-75
2023/01/09 01:46:18;;;;;;;13.20;6.20;;;;;;;-1.73;48.97;101471.70;108165;1254;59718;-76
2023/01/09 01:48:47;;;;;;;13.00;6.20;;;;;;;-1.71;48.64;101458.77;108199;1254;75174;-75
2023/01/09 01:51:15;;;;;;;13.00;6.90;;;;;;;-1.70;48.50;101452.77;108137;1254;73896;-76
2023/01/09 01:53:45;;;;;;;11.90;6.20;;;;;;;-1.69;48.30;101456.64;108140;1254;72931;-76
2023/01/09 01:56:23;;;;;;;12.40;6.20;;;;;;;-1.70;47.96;101456.05;108134;1254;61130;-75
2023/01/09 01:59:21;;;;;;;11.60;5.60;;;;;;;-1.74;48.24;101456.95;108226;1254;60216;-75
2023/01/09 02:01:50;;;;;;;14.70;6.50;;;;;;;-2.28;49.20;101455.16;108154;1253;72125;-75
2023/01/09 02:04:17;;;;;;;13.20;6.70;;;;;;;-2.04;49.07;101457.34;108176;1257;75569;-74
2023/01/09 02:06:46;;;;;;;12.60;6.40;;;;;;;-1.73;48.57;101457.11;108170;1253;74811;-76
2023/01/09 02:09:14;;;;;;;11.90;5.60;;;;;;;-1.65;48.49;101449.10;108160;1254;62621;-76
2023/01/09 02:11:45;;;;;;;11.50;6.20;;;;;;;-1.73;48.50;101446.27;108010;1254;60380;-77
2023/01/09 02:14:12;;;;;;;12.40;6.10;;;;;;;-2.19;49.16;101446.40;108178;1254;72868;-77
2023/01/09 02:16:39;;;;;;;12.10;5.50;;;;;;;-2.31;49.22;101446.73;108152;1259;74798;-75
2023/01/09 02:19:44;;;;;;;13.30;5.90;;;;;;;-2.35;49.46;101443.16;108202;1259;74681;-74
2023/01/09 02:22:49;;;;;;;8.90;5.00;;;;;;;-2.09;49.02;101444.95;108179;1255;61491;-77
2023/01/09 02:25:44;;;;;;;9.70;5.10;;;;;;;-2.34;49.33;101438.66;107665;1260;60805;-76
2023/01/09 02:28:49;;;;;;;10.50;5.40;;;;;;;-2.42;49.75;101430.55;108142;1253;75359;-77
2023/01/09 02:31:21;;;;;;;9.80;5.00;;;;;;;-2.46;49.85;101430.78;108142;1254;71626;-76
2023/01/09 02:33:58;;;;;;;11.00;5.70;;;;;;;-2.48;50.17;101428.24;108161;1254;73112;-74
2023/01/09 02:36:47;;;;;;;13.40;5.80;;;;;;;-2.51;50.16;101429.96;108150;1254;60820;-74
2023/01/09 02:39:32;;;;;;;11.00;5.50;;;;;;;-2.57;50.77;101425.60;108169;1254;60359;-77
2023/01/09 02:42:05;;;;;;;9.90;5.00;;;;;;;-2.60;50.96;101427.06;108139;1254;73607;-76
2023/01/09 02:44:36;;;;;;;8.90;4.80;;;;;;;-2.58;51.51;101418.90;108262;1254;74586;-75
2023/01/09 02:47:22;;;;;;;9.30;5.20;;;;;;;-2.55;51.42;101421.21;108351;1254;73463;-75
2023/01/09 02:49:52;;;;;;;12.90;5.60;;;;;;;-2.51;51.63;101415.10;108401;1254;62962;-76
2023/01/09 02:52:36;;;;;;;9.60;5.50;;;;;;;-2.46;51.92;101407.40;108392;1254;60185;-76
2023/01/09 02:55:41;;;;;;;12.00;5.90;;;;;;;-2.40;52.29;101404.80;108366;1254;74493;-77
2023/01/09 02:58:38;;;;;;;13.20;5.60;;;;;;;-2.38;52.68;101406.63;108163;1254;72991;-76
2023/01/09 03:01:14;;;;;;;10.60;5.30;;;;;;;-2.33;52.99;101410.67;108168;1257;72580;-74
2023/01/09 03:03:56;;;;;;;10.30;5.00;;;;;;;-2.16;52.72;101403.63;108206;1253;60283;-76
2023/01/09 03:06:26;;;;;;;8.10;4.50;;;;;;;-1.66;51.96;101401.69;108226;1254;60232;-75
2023/01/09 03:08:55;;;;;;;9.80;4.90;;;;;;;-1.60;51.82;101397.11;108257;1253;73127;-75
2023/01/09 03:11:22;;;;;;;9.80;4.80;;;;;;;-1.61;51.83;101395.79;108266;1254;75091;-75
2023/01/09 03:14:04;;;;;;;8.20;4.20;;;;;;;-1.58;51.77;101397.46;108269;1253;72670;-77
2023/01/09 03:16:34;;;;;;;9.80;5.10;;;;;;;-1.56;51.62;101398.95;108247;1254;62629;-75
2023/01/09 03:19:03;;;;;;;9.40;5.00;;;;;;;-1.55;51.68;101399.18;108143;1254;61404;-77
2023/01/09 03:21:30;;;;;;;10.50;5.30;;;;;;;-1.54;52.00;101403.27;108151;1254;73909;-76
2023/01/09 03:23:58;;;;;;;12.70;5.10;;;;;;;-1.54;52.14;101399.45;108048;1254;74738;-75
2023/01/09 03:26:25;;;;;;;9.70;4.30;;;;;;;-1.55;52.39;101394.98;108206;1254;73561;-75
2023/01/09 03:28:52;;;;;;;10.80;4.90;;;;;;;-1.57;52.76;101394.66;108166;1253;60153;-76
2023/01/09 03:31:19;;;;;;;10.20;5.20;;;;;;;-1.57;53.13;101388.98;108216;1253;61457;-76
2023/01/09 03:33:47;;;;;;;9.70;4.90;;;;;;;-1.55;53.20;101387.47;108187;1254;73457;-75
2023/01/09 03:36:15;;;;;;;8.80;4.90;;;;;;;-1.53;53.51;101384.86;108220;1254;71721;-75
2023/01/09 03:38:42;;;;;;;9.00;4.60;;;;;;;-2.04;54.61;101380.05;108241;1253;73054;-75
2023/01/09 03:41:09;;;;;;;8.90;5.00;;;;;;;-2.28;55.58;101376.20;108230;1254;60789;-75
2023/01/09 03:43:36;;;;;;;9.80;5.00;;;;;;;-1.85;55.25;101373.30;108162;1254;59838;-75
2023/01/09 03:46:04;;;;;;;10.20;5.20;;;;;;;-1.71;55.05;101371.94;108156;1254;72374;-75
2023/01/09 03:48:31;;;;;;;11.30;5.30;;;;;;;-1.66;55.21;101377.77;108193;1253;74186;-75
2023/01/09 03:50:58;;;;;;;10.20;5.50;;;;;;;-1.66;55.48;101371.96;108184;1253;73311;-75
2023/01/09 03:53:26;;;;;;;10.10;5.50;;;;;;;-1.70;55.85;101374.33;108193;1254;60215;-75
2023/01/09 03:55:55;;;;;;;11.50;5.60;;;;;;;-1.73;55.89;101374.64;108262;1254;59730;-75
2023/01/09 03:58:22;;;;;;;10.70;5.30;;;;;;;-1.76;56.09;101371.45;108193;1253;72601;-75
2023/01/09 04:00:49;;;;;;;12.90;5.60;;;;;;;-1.80;56.39;101364.73;108222;1254;73114;-75
2023/01/09 04:03:19;;;;;;;10.70;6.00;;;;;;;-1.80;56.78;101363.67;108196;1257;72125;-75
2023/01/09 04:05:46;;;;;;;11.50;6.00;;;;;;;-1.83;56.79;101366.38;108247;1254;62887;-74
2023/01/09 04:08:14;;;;;;;12.10;6.30;;;;;;;-1.82;56.89;101366.53;108249;1254;62729;-76
2023/01/09 04:10:45;;;;;;;11.20;5.50;;;;;;;-1.81;57.17;101366.91;108252;1253;72951;-76
2023/01/09 04:13:14;;;;;;;11.00;6.30;;;;;;;-1.84;57.38;101358.55;108274;1253;72900;-75
2023/01/09 04:15:41;;;;;;;14.20;6.60;;;;;;;-1.96;57.82;101360.21;108278;1253;73202;-77
2023/01/09 04:18:08;;;;;;;12.60;6.60;;;;;;;-2.33;58.60;101360.25;108254;1253;60717;-75
2023/01/09 04:20:35;;;;;;;13.40;6.90;;;;;;;-2.42;58.98;101358.90;108191;1254;61673;-75
2023/01/09 04:23:02;;;;;;;11.20;6.30;;;;;;;-2.45;59.32;101352.95;108178;1253;71701;-75
2023/01/09 04:25:29;;;;;;;12.70;6.40;;;;;;;-2.44;59.56;101346.02;108217;1254;73827;-76
2023/01/09 04:27:56;;;;;;;14.00;6.60;;;;;;;-2.44;59.75;101345.14;108013;1254;71050;-76
2023/01/09 04:30:23;;;;;;;12.80;6.40;;;;;;;-2.47;60.01;101345.46;108232;1253;61572;-76
2023/01/09 06:07:22;;;;;;;11.90;6.50;;;;;;;-3.06;70.47;101309.92;105950;1282;614757;-76
2023/01/09 06:09:49;;;;;;;13.80;6.20;;;;;;;-1.91;67.12;101310.01;107259;1265;155032;-75
2023/01/09 06:12:16;;;;;;;11.70;6.90;;;;;;;-1.79;65.74;101307.17;107357;1266;62506;-75
2023/01/09 06:14:43;;;;;;;12.00;7.00;;;;;;;-1.76;64.92;101306.64;107379;1266;72388;-75
2023/01/09 06:17:10;;;;;;;11.20;6.20;;;;;;;-1.74;64.35;101309.06;107361;1266;71799;-75
2023/01/09 06:19:37;;;;;;;12.60;7.50;;;;;;;-1.70;64.07;101307.44;107351;1266;74793;-74
2023/01/09 06:22:04;;;;;;;15.10;7.40;;;;;;;-1.66;63.71;101304.59;107299;1272;62184;-74
2023/01/09 06:24:31;;;;;;;14.30;7.50;;;;;;;-1.61;63.28;101303.77;107357;1266;59540;-75
2023/01/09 06:26:58;;;;;;;12.30;6.50;;;;;;;-1.62;62.88;101304.10;107375;1265;71639;-75
2023/01/09 06:29:25;;;;;;;12.40;6.20;;;;;;;-1.63;62.64;101299.64;107352;1265;70817;-75
2023/01/09 06:31:52;;;;;;;12.10;6.60;;;;;;;-1.59;62.60;101296.55;107351;1267;71685;-75
2023/01/09 06:34:19;;;;;;;12.10;6.40;;;;;;;-1.56;62.22;101295.73;107352;1266;60483;-75
2023/01/09 06:36:46;;;;;;;13.40;6.30;;;;;;;-1.55;62.07;101294.09;107340;1266;59649;-75
2023/01/09 06:39:13;;;;;;;12.80;6.30;;;;;;;-1.58;62.03;101291.43;107375;1266;74246;-76
2023/01/09 06:41:40;;;;;;;12.90;5.90;;;;;;;-1.58;61.78;101294.41;107689;1257;74523;-75
2023/01/09 06:44:07;;;;;;;11.20;6.40;;;;;;;-1.57;61.88;101292.50;107760;1257;71388;-76
2023/01/09 06:46:34;;;;;;;12.80;7.30;;;;;;;-1.53;61.67;101290.14;107712;1260;60335;-76
2023/01/09 06:49:01;;;;;;;15.10;7.50;;;;;;;-1.52;61.50;101287.23;107860;1257;59486;-75
2023/01/09 06:51:28;;;;;;;12.80;6.60;;;;;;;-1.50;61.55;101289.40;107644;1257;71866;-75
2023/01/09 06:53:55;;;;;;;11.40;6.30;;;;;;;-1.46;61.44;101289.08;107675;1257;73574;-76
2023/01/09 06:56:22;;;;;;;14.20;7.10;;;;;;;-1.40;61.37;101289.75;107717;1259;74954;-75
2023/01/09 06:58:49;;;;;;;13.70;6.70;;;;;;;-1.37;61.27;101284.30;107648;1259;59722;-76
2023/01/09 07:01:16;;;;;;;10.80;6.00;;;;;;;-1.32;61.14;101283.29;107702;1259;60944;-75
2023/01/09 07:03:43;;;;;;;13.10;6.50;;;;;;;-1.30;61.18;101283.02;107802;1257;73257;-76
2023/01/09 07:06:10;;;;;;;12.50;6.60;;;;;;;-1.29;60.90;101284.17;107777;1257;72737;-75
2023/01/09 07:08:37;;;;;;;10.60;6.10;;;;;;;-1.26;60.92;101287.85;107698;1257;74671;-76
2023/01/09 07:11:04;;;;;;;12.70;6.70;;;;;;;-1.25;60.95;101282.70;107812;1257;59648;-74
2023/01/09 07:13:31;;;;;;;11.20;6.40;;;;;;;-1.23;60.75;101276.20;107711;1257;61906;-76
2023/01/09 07:15:58;;;;;;;12.30;6.50;;;;;;;-1.20;60.85;101276.59;107700;1257;73608;-75
2023/01/09 07:18:25;;;;;;;13.00;6.50;;;;;;;-1.15;60.76;101282.33;107714;1257;74841;-76
2023/01/09 07:20:52;;;;;;;11.30;6.00;;;;;;;-1.11;60.69;101281.80;107689;1260;74838;-75
2023/01/09 07:23:19;;;;;;;11.70;6.20;;;;;;;-1.11;60.80;101276.05;107652;1265;61692;-76
2023/01/09 07:25:47;;;;;;;12.60;6.90;;;;;;;-1.09;60.80;101267.39;107684;1259;62468;-76
2023/01/09 07:28:13;;;;;;;12.00;6.40;;;;;;;-1.08;60.76;101265.70;107618;1258;73265;-76
2023/01/09 07:30:40;;;;;;;14.30;7.20;;;;;;;-1.09;60.78;101261.95;107710;1259;75122;-76
2023/01/09 07:33:07;;;;;;;12.90;7.20;;;;;;;-1.12;60.75;101262.66;107665;1264;71500;-75
2023/01/09 07:35:34;;;;;;;12.30;5.70;;;;;;;-1.12;60.78;101265.09;107687;1260;61249;-76
2023/01/09 07:38:01;;;;;;;13.30;6.30;;;;;;;-1.09;60.78;101262.88;107719;1258;62630;-75
2023/01/09 07:40:28;;;;;;;15.40;6.30;;;;;;;-1.06;60.76;101264.81;107718;1260;72949;-76
2023/01/09 07:42:55;;;;;;;9.70;5.60;;;;;;;-0.99;61.06;101272.09;107726;1260;73833;-75
2023/01/09 07:45:22;;;;;;;14.40;6.90;;;;;;;-0.98;61.26;101274.52;107728;1259;72638;-75
2023/01/09 07:47:51;;;;;;;13.90;7.30;;;;;;;-0.95;61.22;101278.27;107712;1259;60510;-75
2023/01/09 07:50:18;;;;;;;12.50;7.50;;;;;;;-0.90;61.22;101283.58;107727;1259;59655;-75
2023/01/09 07:52:45;;;;;;;15.10;7.40;;;;;;;-0.85;61.41;101286.23;107747;1260;73465;-74
2023/01/09 07:55:12;;;;;;;13.70;8.10;;;;;;;-0.82;61.35;101284.91;107707;1257;72073;-75
2023/01/09 07:57:46;;;;;;;13.70;7.00;;;;;;;-0.80;61.33;101281.88;107747;1260;71106;-74
2023/01/09 08:00:13;;;;;;;13.20;6.50;;;;;;;-0.81;61.36;101270.02;107674;1257;59892;-75
2023/01/09 08:02:40;;;;;;;11.10;6.10;;;;;;;-0.85;61.39;101265.70;107681;1257;60751;-75
2023/01/09 08:05:12;;;;;;;12.80;6.70;;;;;;;-0.85;61.47;101261.33;107834;1257;73859;-74
2023/01/09 08:07:39;;;;;;;15.50;6.40;;;;;;;-0.87;61.61;101264.55;107822;1257;73328;-74
2023/01/09 08:10:09;;;;;;;13.40;6.70;;;;;;;-0.88;61.47;101260.31;107690;1262;72747;-74
2023/01/09 08:12:36;;;;;;;12.80;7.10;;;;;;;-0.87;61.60;101265.23;107734;1260;60343;-75
2023/01/09 08:15:03;;;;;;;12.80;7.50;;;;;;;-0.85;61.86;101264.11;107787;1259;62877;-76
2023/01/09 08:17:31;;;;;;;14.10;7.40;;;;;;;-0.82;61.92;101264.98;107740;1264;73713;-74
2023/01/09 08:19:58;;;;;;;13.30;7.00;;;;;;;-0.82;61.82;101256.91;107733;1259;73138;-75
2023/01/09 08:22:25;;;;;;;12.20;6.60;;;;;;;-0.77;61.75;101258.84;107702;1260;72676;-75
2023/01/09 08:24:52;;;;;;;12.50;6.40;;;;;;;-0.72;61.79;101264.83;107738;1259;60464;-75
2023/01/09 08:27:18;;;;;;;12.30;6.70;;;;;;;-0.66;61.74;101267.17;107708;1258;59503;-75
2023/01/09 08:29:45;;;;;;;13.90;7.20;;;;;;;-0.59;61.72;101266.42;107695;1260;74139;-75
2023/01/09 08:32:12;;;;;;;11.70;6.30;;;;;;;-0.55;61.81;101260.67;107669;1260;73565;-76
2023/01/09 08:34:39;;;;;;;11.30;6.60;;;;;;;-0.51;61.69;101258.19;107749;1264;73117;-75
2023/01/09 08:37:06;;;;;;;12.00;6.90;;;;;;;-0.48;61.59;101258.70;107713;1260;59936;-78
2023/01/09 08:39:34;;;;;;;16.70;6.60;;;;;;;-0.49;61.41;101254.96;107724;1259;59384;-75
2023/01/09 08:47:33;;;;;;;12.10;6.40;;;;;;;-1.12;63.40;101242.94;107692;1259;72732;-76
2023/01/09 08:50:00;;;;;;;12.50;6.40;;;;;;;-1.11;63.62;101244.55;107730;1260;62237;-75
2023/01/09 08:52:29;;;;;;;12.40;5.90;;;;;;;-1.07;63.64;101234.20;107619;1260;61063;-75
2023/01/09 08:54:56;;;;;;;11.10;6.00;;;;;;;-1.18;63.75;101227.67;107618;1260;73053;-75
2023/01/09 08:57:23;;;;;;;11.50;6.40;;;;;;;-1.13;63.88;101220.83;107684;1259;75160;-75
2023/01/09 08:59:53;;;;;;;10.70;6.20;;;;;;;-1.03;63.88;101214.08;107632;1260;74177;-76
2023/01/09 09:02:19;;;;;;;11.30;6.10;;;;;;;-0.99;63.92;101209.48;107659;1260;60341;-75
2023/01/09 09:04:50;;;;;;;10.60;5.80;;;;;;;-0.98;63.94;101204.64;107691;1259;59392;-75
2023/01/09 09:07:25;;;;;;;13.50;6.10;;;;;;;-0.96;63.96;101206.85;107676;1259;75024;-75
2023/01/09 09:09:53;;;;;;;9.60;5.60;;;;;;;-0.92;63.97;101203.12;107673;1260;72116;-75
2023/01/09 09:12:20;;;;;;;13.00;5.70;;;;;;;-0.91;63.91;101189.58;107718;1260;73546;-74
2023/01/09 09:17:33;;;;;;;9.80;5.70;;;;;;;-0.88;64.02;101191.73;107752;1260;59414;-75
2023/01/09 09:20:00;;;;;;;10.70;5.70;;;;;;;-0.85;63.89;101192.77;107657;1259;71695;-75
2023/01/09 09:22:27;;;;;;;9.50;5.20;;;;;;;-0.79;63.98;101197.07;107725;1260;71854;-76
2023/01/09 09:24:54;;;;;;;10.80;6.00;;;;;;;-0.76;63.99;101197.86;107779;1259;74432;-76
2023/01/09 09:27:21;;;;;;;10.20;5.90;;;;;;;-0.75;63.75;101194.09;107739;1259;59999;-75
2023/01/09 09:29:48;;;;;;;10.10;5.90;;;;;;;-0.73;63.88;101188.42;107710;1260;60282;-74
2023/01/09 09:32:15;;;;;;;11.70;5.40;;;;;;;-0.73;63.95;101182.49;107741;1259;74737;-75
2023/01/09 09:34:42;;;;;;;13.70;6.30;;;;;;;-0.70;63.97;101186.60;107689;1260;72957;-75
2023/01/09 09:37:08;;;;;;;11.70;6.20;;;;;;;-0.67;64.24;101180.67;107651;1260;71937;-74
2023/01/09 09:39:36;;;;;;;11.90;5.90;;;;;;;-0.65;64.17;101175.44;107667;1263;59862;-74
2023/01/09 09:45:36;;;;;;;10.40;5.50;;;;;;;-0.64;64.47;101172.02;107756;1259;73529;-75
2023/01/09 09:48:42;;;;;;;9.20;5.40;;;;;;;-0.61;64.40;101176.73;107712;1260;74865;-75
2023/01/09 09:51:34;;;;;;;8.40;5.00;;;;;;;-0.57;64.85;101176.79;107328;1268;74854;-75
2023/01/09 09:54:09;;;;;;;11.10;6.00;;;;;;;-0.56;65.09;101175.67;107668;1260;59673;-76
2023/01/09 09:56:50;;;;;;;10.80;5.80;;;;;;;-0.58;65.27;101178.59;107649;1259;60306;-76
2023/01/09 09:59:19;;;;;;;10.10;4.60;;;;;;;-0.56;65.49;101176.13;107677;1260;73274;-76
2023/01/09 10:02:03;;;;;;;14.30;6.70;;;;;;;-0.55;65.60;101170.21;107644;1259;73053;-76
2023/01/09 10:04:31;;;;;;;9.70;4.70;;;;;;;-0.50;65.58;101163.71;107703;1260;72541;-75
2023/01/09 10:07:04;;;;;;;10.30;4.80;;;;;;;-0.45;65.59;101165.51;107633;1260;61517;-75
2023/01/09 10:09:35;;;;;;;9.50;5.40;;;;;;;-0.44;65.81;101161.92;107690;1260;62161;-76
2023/01/09 10:12:26;;;;;;;8.70;5.20;;;;;;;-0.45;65.73;101159.73;107663;1259;73708;-76
2023/01/09 10:15:08;;;;;;;9.60;5.10;;;;;;;-0.46;65.92;101153.67;107668;1259;72944;-76
2023/01/09 10:17:35;;;;;;;;;;;;;;;-0.47;66.03;101151.34;107622;1259;72664;-77
2023/01/09 10:20:32;;;;;;;8.80;4.90;;;;;;;-0.50;66.14;101146.81;107679;1260;60057;-77
2023/01/09 10:23:06;;;;;;;8.00;4.70;;;;;;;-0.51;66.30;101146.78;107680;1260;61548;-76
2023/01/09 10:26:04;;;;;;;9.30;4.50;;;;;;;-0.49;66.28;101147.60;107651;1260;75879;-77
2023/01/09 10:28:45;;;;;;;7.70;4.50;;;;;;;-0.45;66.39;101140.98;107669;1260;74969;-76
2023/01/09 10:31:51;;;;;;;9.30;4.50;;;;;;;-0.40;66.36;101141.19;107712;1260;74640;-76
2023/01/09 10:34:35;;;;;;;8.30;4.70;;;;;;;-0.36;66.45;101142.09;107408;1266;60445;-76
2023/01/09 10:37:10;;;;;;;9.90;5.20;;;;;;;-0.35;66.57;101139.70;107707;1260;60625;-78
2023/01/09 10:39:51;;;;;;;8.10;4.70;;;;;;;-0.33;66.42;101126.05;107710;1260;73005;-78
2023/01/09 10:42:36;;;;;;;9.70;5.00;;;;;;;-0.32;66.53;101118.66;107683;1260;74959;-76
2023/01/09 10:45:11;;;;;;;8.10;4.60;;;;;;;-0.28;66.69;101111.22;107596;1260;73063;-75
2023/01/09 10:47:38;;;;;;;10.00;5.10;;;;;;;-0.25;66.71;101121.94;107688;1260;62179;-76
2023/01/09 10:50:21;;;;;;;8.40;5.10;;;;;;;-0.21;66.73;101114.89;107681;1260;61855;-77
2023/01/09 10:52:53;;;;;;;8.90;4.90;;;;;;;-0.17;66.84;101120.02;107770;1258;74147;-76
2023/01/09 10:55:52;;;;;;;9.00;4.90;;;;;;;-0.15;66.61;101117.68;107760;1260;74490;-77
2023/01/09 10:58:20;;;;;;;9.40;4.70;;;;;;;-0.14;66.61;101122.17;107722;1260;73873;-77
2023/01/09 11:00:48;;;;;;;8.00;4.70;;;;;;;-0.12;66.65;101123.48;107790;1260;60508;-78
2023/01/09 11:03:18;;;;;;;10.80;5.40;;;;;;;-0.11;66.86;101123.08;107794;1259;60704;-78
2023/01/09 11:05:52;;;;;;;8.50;5.20;;;;;;;-0.12;67.05;101122.56;107678;1258;76562;-75
2023/01/09 11:08:28;;;;;;;7.60;4.20;;;;;;;-0.13;67.09;101110.29;107707;1260;71951;-77
2023/01/09 11:10:59;;;;;;;9.60;5.00;;;;;;;-0.13;67.30;101109.44;107649;1260;74748;-76
2023/01/09 11:13:31;;;;;;;10.40;5.80;;;;;;;-0.13;67.25;101107.66;107706;1258;61426;-78
2023/01/09 11:16:21;;;;;;;9.20;5.30;;;;;;;-0.11;67.19;101108.70;107721;1260;60294;-77
2023/01/09 11:18:48;;;;;;;8.40;5.30;;;;;;;-0.11;67.34;101111.85;107706;1260;74719;-76
2023/01/09 11:21:32;;;;;;;10.10;5.10;;;;;;;-0.13;67.27;101108.52;107666;1261;73886;-76
2023/01/09 11:24:17;;;;;;;8.60;4.60;;;;;;;-0.13;67.37;101100.80;107710;1260;74229;-76
2023/01/09 11:26:45;;;;;;;10.60;4.70;;;;;;;-0.17;67.26;101100.83;107653;1260;60916;-77
2023/01/09 11:29:17;;;;;;;11.40;5.90;;;;;;;-0.18;67.56;101110.55;107703;1260;60307;-77
2023/01/09 11:31:58;;;;;;;9.00;5.10;;;;;;;-0.14;67.48;101108.88;107582;1259;72800;-76
2023/01/09 11:34:30;;;;;;;8.70;5.20;;;;;;;-0.13;67.57;101110.44;107691;1260;74875;-76
2023/01/09 11:37:08;;;;;;;8.60;4.80;;;;;;;-0.14;67.48;101106.87;107643;1259;73534;-77
2023/01/09 11:39:40;;;;;;;9.10;5.20;;;;;;;-0.12;67.49;101103.55;107707;1260;60452;-75
2023/01/09 11:42:17;;;;;;;8.30;4.70;;;;;;;-0.08;67.62;101107.30;107706;1259;60320;-76
2023/01/09 18:22:50;;;;;;;6.30;3.30;;;;;;;1.75;65.18;101044.29;105817;1285;612574;-65
2023/01/09 18:25:17;;;;;;;6.40;3.40;;;;;;;2.14;62.56;101040.64;107298;1266;112063;-65
2023/01/09 18:27:45;;;;;;;8.10;3.60;;;;;;;2.09;62.27;101043.59;107419;1266;62579;-65
2023/01/09 18:30:12;;;;;;;7.10;3.50;;;;;;;2.07;61.89;101036.30;107417;1264;71430;-65
2023/01/09 18:32:40;;;;;;;8.30;3.70;;;;;;;2.03;61.57;101033.56;107397;1264;75054;-64
2023/01/09 18:35:08;;;;;;;7.40;3.30;;;;;;;2.03;61.43;101035.27;107460;1267;72166;-66
2023/01/09 18:37:35;;;;;;;13.00;3.30;;;;;;;2.03;61.22;101036.86;107553;1264;60799;-65
2023/01/09 18:40:03;;;;;;;8.00;3.60;;;;;;;2.02;60.79;101034.70;107584;1262;59495;-64
2023/01/09 18:42:30;;;;;;;6.80;3.20;;;;;;;2.01;60.42;101039.96;107537;1263;74566;-64
2023/01/09 18:44:58;;;;;;;8.00;3.20;;;;;;;2.01;60.14;101044.25;107512;1263;74894;-65
2023/01/09 18:47:25;;;;;;;6.00;2.70;;;;;;;2.00;59.81;101050.64;107501;1264;72752;-65
2023/01/09 18:49:52;;;;;;;6.60;3.00;;;;;;;1.97;59.41;101049.81;107545;1263;61240;-65
2023/01/09 18:52:19;;;;;;;8.10;2.90;;;;;;;1.96;59.15;101045.70;107489;1263;61101;-66
2023/01/09 18:54:46;;;;;;;7.80;3.10;;;;;;;1.96;58.89;101045.54;107562;1263;70930;-64
2023/01/09 18:57:13;;;;;;;7.00;3.20;;;;;;;1.97;58.70;101043.24;107530;1263;73269;-66
2023/01/09 18:59:40;;;;;;;5.30;3.00;;;;;;;1.99;58.55;101036.54;107525;1267;72618;-65
2023/01/09 19:02:22;;;;;;;6.60;3.00;;;;;;;1.79;58.73;101033.25;107511;1263;59902;-64
2023/01/09 19:04:50;;;;;;;6.50;2.70;;;;;;;1.58;59.01;101026.48;107533;1269;61675;-65
2023/01/09 19:07:17;;;;;;;5.90;2.90;;;;;;;1.50;58.96;101016.88;107515;1263;73192;-64
2023/01/09 19:09:44;;;;;;;6.30;3.00;;;;;;;1.47;59.07;101017.45;107539;1263;74259;-66
2023/01/09 19:12:11;;;;;;;6.70;3.00;;;;;;;1.44;58.80;101019.96;107414;1263;74468;-64
2023/01/09 19:14:38;;;;;;;6.30;2.80;;;;;;;1.38;58.78;101015.03;107470;1264;60959;-65
2023/01/09 19:17:05;;;;;;;5.50;2.60;;;;;;;1.35;59.03;101021.56;107611;1260;62176;-64
2023/01/09 19:19:32;;;;;;;6.10;2.60;;;;;;;1.35;59.08;101023.13;107702;1260;75414;-65
2023/01/09 19:22:00;;;;;;;6.90;3.00;;;;;;;1.35;58.91;101028.36;107682;1260;71985;-65
2023/01/09 19:24:27;;;;;;;5.40;2.70;;;;;;;1.35;58.77;101028.91;107646;1260;74991;-64
2023/01/09 19:26:54;;;;;;;4.50;2.40;;;;;;;1.36;58.79;101033.89;107654;1260;60303;-64
2023/01/09 19:29:21;;;;;;;8.50;2.80;;;;;;;1.35;58.51;101035.66;107660;1260;60569;-65
2023/01/09 19:31:50;;;;;;;6.10;2.60;;;;;;;1.33;58.41;101033.13;107663;1260;73067;-65
2023/01/09 19:34:19;;;;;;;6.60;2.70;;;;;;;1.33;58.54;101033.89;107704;1260;74671;-65
2023/01/09 19:36:46;;;;;;;6.70;3.00;;;;;;;1.31;58.26;101034.80;107611;1260;71318;-65
2023/01/09 19:39:14;;;;;;;6.20;2.60;;;;;;;1.32;58.28;101039.83;107685;1260;59708;-65
2023/01/09 19:41:41;;;;;;;6.50;2.80;;;;;;;1.34;57.91;101048.88;107665;1262;60234;-65
2023/01/09 19:44:09;;;;;;;6.40;2.50;;;;;;;1.37;57.90;101050.21;107714;1260;70920;-64
2023/01/09 19:46:36;;;;;;;7.00;3.00;;;;;;;1.38;57.91;101053.62;107674;1260;73474;-63
2023/01/09 19:49:04;;;;;;;5.70;2.80;;;;;;;1.35;57.81;101059.09;107709;1265;73334;-63
2023/01/09 19:51:32;;;;;;;6.50;3.00;;;;;;;1.35;57.38;101061.69;107656;1260;59633;-65
2023/01/09 19:54:02;;;;;;;6.70;3.20;;;;;;;1.37;57.60;101063.45;107655;1260;60316;-64
2023/01/09 19:56:30;;;;;;;7.60;3.10;;;;;;;1.38;57.52;101061.13;107660;1260;73272;-64
2023/01/09 19:58:59;;;;;;;6.80;2.80;;;;;;;1.36;57.38;101063.81;107710;1260;72053;-64
2023/01/09 20:01:40;;;;;;;5.70;2.40;;;;;;;1.34;57.16;101063.90;107652;1260;74127;-64